Time;durP1;ratioP1;P1;durP2;ratioP2;P2;SDS_P1;SDS_P2;PMS_P1;PMS_P2;Temp;Humidity;BMP_temperature;BMP_pressure;BME280_temperature;BME280_humidity;BME280_pressure;Samples;Min_cycle;Max_cycle;Signal;HPM_P1;HPM_P2
2022/12/12 00:00:34;;;;;;;5.30;3.35;;;;;;;;;;5094276;28;20063;-58
2022/12/12 00:02:59;;;;;;;5.85;3.17;;;;;;;;;;5094677;28;20035;-58
2022/12/12 00:05:26;;;;;;;4.40;3.58;;;;;;;;;;5094538;28;20028;-60
2022/12/12 00:07:52;;;;;;;3.20;2.90;;;;;;;;;;5094819;28;20102;-58
2022/12/12 00:10:17;;;;;;;3.92;2.92;;;;;;;;;;5094707;28;20570;-58
2022/12/12 00:12:43;;;;;;;3.53;3.13;;;;;;;;;;5094394;28;20028;-56
2022/12/12 00:15:09;;;;;;;4.60;3.00;;;;;;;;;;5094257;28;20028;-58
2022/12/12 00:17:34;;;;;;;3.80;3.35;;;;;;;;;;5094406;28;20034;-57
2022/12/12 00:20:00;;;;;;;5.10;3.60;;;;;;;;;;5094503;28;20085;-58
2022/12/12 00:22:26;;;;;;;3.92;2.83;;;;;;;;;;5093945;28;20499;-59
2022/12/12 00:24:51;;;;;;;7.35;3.22;;;;;;;;;;5094020;28;20052;-58
2022/12/12 00:27:17;;;;;;;4.57;3.22;;;;;;;;;;5094293;28;20099;-59
2022/12/12 00:29:42;;;;;;;3.25;2.95;;;;;;;;;;5094213;28;20035;-58
2022/12/12 00:32:08;;;;;;;3.63;3.03;;;;;;;;;;5092024;28;20032;-59
2022/12/12 00:34:33;;;;;;;3.20;2.90;;;;;;;;;;5092886;28;20016;-59
2022/12/12 00:36:59;;;;;;;3.75;3.30;;;;;;;;;;5093021;28;20031;-65
2022/12/12 00:39:24;;;;;;;5.25;3.33;;;;;;;;;;5091827;28;20379;-66
2022/12/12 00:41:50;;;;;;;3.08;2.78;;;;;;;;;;5092776;28;20370;-58
2022/12/12 00:44:17;;;;;;;3.50;2.97;;;;;;;;;;5092712;28;20497;-58
2022/12/12 00:46:43;;;;;;;3.92;3.20;;;;;;;;;;5090815;28;20078;-59
2022/12/12 00:49:09;;;;;;;3.83;2.95;;;;;;;;;;5092810;28;20372;-59
2022/12/12 00:51:35;;;;;;;3.97;3.58;;;;;;;;;;5092504;28;20016;-59
2022/12/12 00:54:00;;;;;;;3.58;3.08;;;;;;;;;;5092601;28;20016;-58
2022/12/12 00:56:28;;;;;;;3.35;2.97;;;;;;;;;;5093854;28;20035;-58
2022/12/12 00:58:53;;;;;;;3.60;3.30;;;;;;;;;;5093657;28;20020;-58
2022/12/12 01:01:25;;;;;;;3.80;2.80;;;;;;;;;;5093196;28;20043;-58
2022/12/12 01:03:51;;;;;;;3.50;3.03;;;;;;;;;;5092619;28;20032;-65
2022/12/12 01:06:16;;;;;;;4.65;3.55;;;;;;;;;;5093095;28;20020;-58
2022/12/12 01:08:42;;;;;;;3.63;3.22;;;;;;;;;;5093238;28;20024;-59
2022/12/12 01:11:10;;;;;;;4.18;3.28;;;;;;;;;;5093579;28;20020;-59
2022/12/12 01:13:37;;;;;;;3.60;2.83;;;;;;;;;;5093448;28;20367;-58
2022/12/12 01:16:04;;;;;;;3.50;3.15;;;;;;;;;;5091857;28;20024;-59
2022/12/12 01:18:29;;;;;;;3.80;3.05;;;;;;;;;;5093276;28;20031;-57
2022/12/12 01:20:55;;;;;;;3.58;2.88;;;;;;;;;;5092981;28;20028;-58
2022/12/12 01:23:21;;;;;;;3.53;3.03;;;;;;;;;;5093140;28;20119;-58
2022/12/12 01:25:46;;;;;;;3.10;2.80;;;;;;;;;;5091807;28;20012;-58
2022/12/12 01:28:12;;;;;;;4.38;3.08;;;;;;;;;;5093242;28;20024;-58
2022/12/12 01:30:38;;;;;;;3.38;3.00;;;;;;;;;;5093282;28;20020;-58
2022/12/12 01:33:03;;;;;;;4.32;3.20;;;;;;;;;;5093316;28;20023;-58
2022/12/12 01:35:33;;;;;;;4.03;3.22;;;;;;;;;;5092870;28;20016;-59
2022/12/12 01:37:59;;;;;;;3.88;3.28;;;;;;;;;;5093247;28;20046;-58
2022/12/12 01:40:28;;;;;;;3.10;2.78;;;;;;;;;;5092811;28;20519;-58
2022/12/12 01:42:53;;;;;;;3.65;3.10;;;;;;;;;;5092702;28;20479;-58
2022/12/12 01:45:56;;;;;;;4.45;3.10;;;;;;;;;;5092743;28;20038;-58
2022/12/12 01:48:25;;;;;;;3.17;2.75;;;;;;;;;;5091524;28;20033;-59
2022/12/12 01:50:52;;;;;;;3.35;3.05;;;;;;;;;;5092639;28;20053;-59
2022/12/12 01:53:18;;;;;;;3.80;2.95;;;;;;;;;;5092655;28;20034;-58
2022/12/12 01:55:46;;;;;;;3.25;2.95;;;;;;;;;;5092633;28;20539;-58
2022/12/12 01:58:13;;;;;;;4.35;3.13;;;;;;;;;;5092415;28;20035;-60
2022/12/12 02:00:40;;;;;;;3.33;3.03;;;;;;;;;;5091062;28;20054;-59
2022/12/12 02:03:05;;;;;;;3.50;3.08;;;;;;;;;;5091373;28;20024;-62
2022/12/12 02:05:38;;;;;;;3.33;2.80;;;;;;;;;;5092804;28;20024;-59
2022/12/12 02:08:05;;;;;;;3.97;3.20;;;;;;;;;;5093117;28;20111;-58
2022/12/12 02:10:30;;;;;;;3.22;2.92;;;;;;;;;;5092678;28;20101;-58
2022/12/12 02:13:06;;;;;;;3.50;3.15;;;;;;;;;;5092461;28;20032;-58
2022/12/12 02:15:56;;;;;;;3.28;2.97;;;;;;;;;;5092445;28;20035;-62
2022/12/12 02:18:42;;;;;;;4.72;3.00;;;;;;;;;;5070792;28;20040;-66
2022/12/12 02:21:25;;;;;;;3.08;2.63;;;;;;;;;;5092309;28;20029;-58
2022/12/12 02:24:17;;;;;;;3.10;2.80;;;;;;;;;;5092383;28;20039;-60
2022/12/12 02:27:01;;;;;;;4.65;3.10;;;;;;;;;;5092692;28;20113;-60
2022/12/12 02:29:46;;;;;;;3.13;2.83;;;;;;;;;;5092329;28;20472;-65
2022/12/12 02:32:48;;;;;;;3.22;2.85;;;;;;;;;;5092314;28;20032;-66
2022/12/12 02:35:30;;;;;;;3.30;2.70;;;;;;;;;;5092285;28;20024;-66
2022/12/12 02:38:25;;;;;;;3.67;2.92;;;;;;;;;;5092213;28;20032;-59
2022/12/12 02:41:06;;;;;;;3.60;2.90;;;;;;;;;;5092122;28;20035;-65
2022/12/12 02:43:42;;;;;;;3.17;2.88;;;;;;;;;;5092157;28;20036;-58
2022/12/12 02:46:40;;;;;;;3.15;2.55;;;;;;;;;;5092430;28;20028;-58
2022/12/12 02:49:30;;;;;;;3.40;2.90;;;;;;;;;;5084400;28;20495;-60
2022/12/12 02:51:57;;;;;;;3.22;2.85;;;;;;;;;;5091753;28;20395;-64
2022/12/12 02:54:23;;;;;;;3.70;2.88;;;;;;;;;;5090796;28;20467;-59
2022/12/12 02:56:57;;;;;;;4.75;3.08;;;;;;;;;;5092057;28;20077;-59
2022/12/12 02:59:54;;;;;;;3.13;2.75;;;;;;;;;;5090792;28;20361;-59
2022/12/12 03:02:33;;;;;;;3.70;2.65;;;;;;;;;;5090933;28;20052;-65
2022/12/12 03:08:28;;;;;;;4.07;2.85;;;;;;;;;;5091976;28;20514;-60
2022/12/12 03:11:10;;;;;;;4.80;2.55;;;;;;;;;;5095555;28;20031;-58
2022/12/12 03:14:02;;;;;;;3.92;2.75;;;;;;;;;;5094501;28;20400;-58
2022/12/12 03:16:43;;;;;;;3.28;2.95;;;;;;;;;;5095511;28;20028;-58
2022/12/12 03:19:21;;;;;;;4.13;2.90;;;;;;;;;;5095761;28;20024;-58
2022/12/12 03:21:59;;;;;;;3.20;2.80;;;;;;;;;;5095422;28;20028;-58
2022/12/12 03:24:27;;;;;;;3.53;2.90;;;;;;;;;;5095428;28;20551;-58
2022/12/12 03:27:23;;;;;;;3.22;2.70;;;;;;;;;;5095574;28;20027;-58
2022/12/12 03:30:10;;;;;;;3.78;2.95;;;;;;;;;;5088847;28;20471;-57
2022/12/12 03:33:02;;;;;;;3.38;3.08;;;;;;;;;;5095284;28;20182;-57
2022/12/12 03:35:35;;;;;;;3.25;2.70;;;;;;;;;;5094734;28;20032;-58
2022/12/12 03:38:06;;;;;;;2.95;2.47;;;;;;;;;;5095387;28;20376;-60
2022/12/12 03:41:00;;;;;;;3.20;2.90;;;;;;;;;;5095399;28;20031;-65
2022/12/12 03:43:37;;;;;;;3.42;2.95;;;;;;;;;;5093060;28;20032;-56
2022/12/12 03:46:15;;;;;;;3.00;2.70;;;;;;;;;;5095050;28;20047;-59
2022/12/12 03:49:01;;;;;;;3.65;2.88;;;;;;;;;;5094976;28;20020;-60
2022/12/12 03:51:29;;;;;;;3.10;2.70;;;;;;;;;;5094906;28;20490;-59
2022/12/12 03:54:05;;;;;;;2.95;2.70;;;;;;;;;;5094834;28;20485;-60
2022/12/12 03:56:40;;;;;;;3.10;2.60;;;;;;;;;;5094742;28;20020;-58
2022/12/12 03:59:13;;;;;;;3.00;2.70;;;;;;;;;;5094715;28;20039;-59
2022/12/12 04:01:47;;;;;;;2.85;2.55;;;;;;;;;;5094323;28;20101;-58
2022/12/12 04:04:25;;;;;;;3.35;2.80;;;;;;;;;;5094581;28;20479;-60
2022/12/12 04:07:19;;;;;;;3.25;2.70;;;;;;;;;;5094528;28;20032;-61
2022/12/12 04:12:58;;;;;;;3.30;3.00;;;;;;;;;;5094723;28;20028;-59
2022/12/12 04:16:03;;;;;;;2.90;2.60;;;;;;;;;;5094431;28;20028;-58
2022/12/12 04:18:49;;;;;;;2.90;2.60;;;;;;;;;;5094392;28;20039;-59
2022/12/12 04:24:33;;;;;;;2.97;2.67;;;;;;;;;;5094298;28;20085;-58
2022/12/12 04:27:02;;;;;;;3.00;2.70;;;;;;;;;;5094443;28;20097;-58
2022/12/12 04:29:41;;;;;;;2.83;2.50;;;;;;;;;;5094427;28;20055;-57
2022/12/12 04:32:11;;;;;;;2.70;2.50;;;;;;;;;;5092910;28;20020;-58
2022/12/12 04:34:40;;;;;;;2.88;2.58;;;;;;;;;;5094344;28;20031;-59
2022/12/12 04:37:07;;;;;;;4.35;2.67;;;;;;;;;;5093874;28;20027;-60
2022/12/12 04:39:36;;;;;;;3.05;2.75;;;;;;;;;;5093883;28;20032;-59
2022/12/12 04:42:05;;;;;;;2.60;2.40;;;;;;;;;;5093810;28;20028;-60
2022/12/12 04:44:34;;;;;;;2.90;2.60;;;;;;;;;;5094050;28;20390;-58
2022/12/12 04:47:01;;;;;;;3.20;2.60;;;;;;;;;;5092509;28;20032;-59
2022/12/12 04:49:29;;;;;;;2.88;2.50;;;;;;;;;;5093674;28;20056;-58
2022/12/12 04:52:06;;;;;;;3.30;2.90;;;;;;;;;;5093752;28;20031;-58
2022/12/12 04:54:49;;;;;;;3.53;2.67;;;;;;;;;;5093888;28;20020;-60
2022/12/12 04:57:24;;;;;;;3.13;2.67;;;;;;;;;;5093713;28;20108;-58
2022/12/12 04:59:50;;;;;;;3.50;2.95;;;;;;;;;;5093532;28;20020;-58
2022/12/12 05:02:22;;;;;;;3.83;2.97;;;;;;;;;;5093277;28;20055;-58
2022/12/12 05:04:57;;;;;;;3.22;2.45;;;;;;;;;;5093764;28;20028;-61
2022/12/12 05:07:51;;;;;;;2.90;2.60;;;;;;;;;;5092346;28;20027;-59
2022/12/12 05:10:18;;;;;;;2.63;2.40;;;;;;;;;;5093362;28;20048;-65
2022/12/12 05:12:49;;;;;;;2.40;2.20;;;;;;;;;;5093964;28;20028;-62
2022/12/12 05:15:19;;;;;;;2.83;2.63;;;;;;;;;;5093513;28;20047;-60
2022/12/12 05:17:51;;;;;;;3.08;2.78;;;;;;;;;;5093361;28;20038;-62
2022/12/12 05:20:17;;;;;;;2.60;2.40;;;;;;;;;;5093116;28;20028;-57
2022/12/12 05:22:42;;;;;;;3.05;2.78;;;;;;;;;;5093042;28;20032;-62
2022/12/12 05:25:08;;;;;;;3.00;2.65;;;;;;;;;;5093010;28;20430;-66
2022/12/12 05:27:35;;;;;;;2.75;2.50;;;;;;;;;;5093337;28;20476;-59
2022/12/12 05:30:00;;;;;;;3.05;2.55;;;;;;;;;;5093294;28;20024;-61
2022/12/12 05:32:26;;;;;;;3.35;2.60;;;;;;;;;;5092432;28;20047;-65
2022/12/12 05:34:51;;;;;;;3.58;2.83;;;;;;;;;;5093357;28;20046;-59
2022/12/12 05:37:17;;;;;;;2.75;2.50;;;;;;;;;;5092884;28;20417;-60
2022/12/12 05:39:43;;;;;;;2.78;2.53;;;;;;;;;;5092816;28;20101;-61
2022/12/12 05:42:08;;;;;;;2.83;2.63;;;;;;;;;;5092886;28;20059;-60
2022/12/12 05:44:34;;;;;;;2.67;2.33;;;;;;;;;;5092969;28;20063;-58
2022/12/12 05:46:59;;;;;;;3.15;2.58;;;;;;;;;;5092781;28;20024;-59
2022/12/12 05:49:25;;;;;;;3.28;2.75;;;;;;;;;;5093067;28;20028;-58
2022/12/12 05:51:53;;;;;;;3.10;2.70;;;;;;;;;;5092706;28;20028;-59
2022/12/12 05:54:18;;;;;;;2.88;2.58;;;;;;;;;;5092582;28;20047;-59
2022/12/12 05:56:44;;;;;;;2.95;2.63;;;;;;;;;;5074526;28;20056;-59
2022/12/12 05:59:09;;;;;;;2.50;2.30;;;;;;;;;;5092630;28;20353;-58
2022/12/12 06:01:41;;;;;;;2.90;2.60;;;;;;;;;;5091869;28;20062;-59
2022/12/12 06:04:06;;;;;;;2.58;2.35;;;;;;;;;;5092498;28;20475;-58
2022/12/12 06:06:32;;;;;;;3.63;2.85;;;;;;;;;;5092772;28;20028;-59
2022/12/12 06:08:57;;;;;;;2.70;2.50;;;;;;;;;;5092413;28;20047;-60
2022/12/12 06:11:23;;;;;;;2.97;2.60;;;;;;;;;;5092920;28;20024;-58
2022/12/12 06:13:48;;;;;;;3.33;2.80;;;;;;;;;;5092370;28;20530;-64
2022/12/12 06:16:16;;;;;;;3.47;3.17;;;;;;;;;;5092373;28;20395;-67
2022/12/12 06:18:42;;;;;;;3.13;2.85;;;;;;;;;;5092275;28;20036;-58
2022/12/12 06:21:10;;;;;;;3.60;2.80;;;;;;;;;;5092614;28;20120;-57
2022/12/12 06:23:40;;;;;;;3.35;2.92;;;;;;;;;;5092824;28;20024;-57
2022/12/12 06:26:08;;;;;;;4.80;3.92;;;;;;;;;;5092619;28;20365;-57
2022/12/12 06:28:34;;;;;;;3.40;3.03;;;;;;;;;;5092583;28;20429;-57
2022/12/12 06:30:59;;;;;;;3.60;3.08;;;;;;;;;;5092037;28;20028;-57
2022/12/12 06:33:26;;;;;;;3.00;2.70;;;;;;;;;;5092247;28;20028;-58
2022/12/12 06:36:04;;;;;;;2.65;2.45;;;;;;;;;;5092489;28;20102;-57
2022/12/12 06:38:31;;;;;;;5.82;2.88;;;;;;;;;;5092641;28;20082;-58
2022/12/12 06:41:03;;;;;;;3.38;2.75;;;;;;;;;;5092309;28;20028;-59
2022/12/12 06:43:28;;;;;;;3.33;3.03;;;;;;;;;;5093301;28;20020;-58
2022/12/12 06:46:00;;;;;;;4.53;2.90;;;;;;;;;;5096177;28;20024;-59
2022/12/12 06:48:25;;;;;;;3.17;2.88;;;;;;;;;;5096140;28;20031;-59
2022/12/12 06:50:51;;;;;;;2.90;2.70;;;;;;;;;;5077807;28;20028;-57
2022/12/12 06:53:16;;;;;;;3.17;2.80;;;;;;;;;;5096147;28;20020;-57
2022/12/12 06:55:42;;;;;;;3.15;2.85;;;;;;;;;;5095897;28;20028;-58
2022/12/12 06:58:09;;;;;;;3.25;2.78;;;;;;;;;;5096048;28;20028;-63
2022/12/12 07:00:35;;;;;;;3.85;3.10;;;;;;;;;;5095533;28;20035;-59
2022/12/12 07:03:01;;;;;;;3.95;2.70;;;;;;;;;;5095607;28;20024;-58
2022/12/12 07:05:29;;;;;;;4.13;3.33;;;;;;;;;;5095645;28;20020;-60
2022/12/12 07:07:55;;;;;;;3.35;2.88;;;;;;;;;;5095561;28;20043;-57
2022/12/12 07:10:20;;;;;;;3.33;3.03;;;;;;;;;;5095976;28;20028;-58
2022/12/12 07:12:46;;;;;;;4.55;3.38;;;;;;;;;;5095829;28;20058;-56
2022/12/12 07:15:12;;;;;;;3.33;2.80;;;;;;;;;;5095603;28;20077;-57
2022/12/12 07:17:37;;;;;;;3.63;2.97;;;;;;;;;;5094571;28;20119;-58
2022/12/12 07:20:04;;;;;;;3.30;2.85;;;;;;;;;;5095514;28;20028;-58
2022/12/12 07:22:29;;;;;;;3.05;2.70;;;;;;;;;;5095623;28;20383;-55
2022/12/12 07:24:55;;;;;;;3.30;3.00;;;;;;;;;;5095727;28;20099;-59
2022/12/12 07:27:20;;;;;;;3.20;2.90;;;;;;;;;;5095636;28;20479;-57
2022/12/12 07:29:46;;;;;;;3.50;2.70;;;;;;;;;;5095491;28;20030;-57
2022/12/12 07:32:11;;;;;;;3.33;3.03;;;;;;;;;;5094030;28;20369;-62
2022/12/12 07:34:37;;;;;;;3.10;2.75;;;;;;;;;;5095076;28;20047;-58
2022/12/12 07:37:03;;;;;;;3.10;2.72;;;;;;;;;;5095483;28;20024;-57
2022/12/12 07:39:32;;;;;;;3.35;3.00;;;;;;;;;;5095239;28;20024;-58
2022/12/12 07:41:58;;;;;;;3.20;2.90;;;;;;;;;;5094900;28;20471;-58
2022/12/12 07:44:24;;;;;;;3.28;2.70;;;;;;;;;;5095180;28;20043;-58
2022/12/12 07:46:50;;;;;;;3.88;3.40;;;;;;;;;;5095162;28;20066;-58
2022/12/12 07:49:16;;;;;;;3.50;3.15;;;;;;;;;;5094868;28;20564;-65
2022/12/12 07:51:41;;;;;;;3.42;3.13;;;;;;;;;;5094889;28;20055;-63
2022/12/12 07:54:07;;;;;;;3.70;3.00;;;;;;;;;;5094373;28;20052;-60
2022/12/12 07:56:33;;;;;;;3.20;2.90;;;;;;;;;;5094742;28;20027;-56
2022/12/12 07:58:58;;;;;;;3.17;2.85;;;;;;;;;;5094557;28;20030;-60
2022/12/12 08:01:26;;;;;;;3.78;3.10;;;;;;;;;;5094075;28;20048;-59
2022/12/12 08:03:53;;;;;;;3.33;3.03;;;;;;;;;;5091335;28;20020;-58
2022/12/12 08:06:20;;;;;;;3.10;2.60;;;;;;;;;;5094074;28;20016;-58
2022/12/12 08:08:47;;;;;;;3.65;3.22;;;;;;;;;;5094101;28;20024;-55
2022/12/12 08:11:14;;;;;;;4.88;3.33;;;;;;;;;;5091192;28;20031;-62
2022/12/12 08:13:40;;;;;;;2.80;2.60;;;;;;;;;;5093704;28;20019;-64
2022/12/12 08:16:11;;;;;;;3.50;3.20;;;;;;;;;;5093989;28;20121;-55
2022/12/12 08:18:36;;;;;;;3.45;3.03;;;;;;;;;;5093787;28;20022;-63
2022/12/12 08:21:09;;;;;;;3.50;3.13;;;;;;;;;;5093634;28;20125;-57
2022/12/12 08:23:36;;;;;;;3.72;3.40;;;;;;;;;;5091774;28;20417;-61
2022/12/12 08:26:04;;;;;;;2.95;2.65;;;;;;;;;;5093512;28;20016;-59
2022/12/12 08:28:30;;;;;;;4.90;3.15;;;;;;;;;;5093707;28;20016;-56
2022/12/12 08:30:55;;;;;;;3.60;3.00;;;;;;;;;;5093504;28;20020;-61
2022/12/12 08:33:21;;;;;;;3.50;3.20;;;;;;;;;;5093652;28;20039;-56
2022/12/12 08:35:46;;;;;;;3.58;2.83;;;;;;;;;;5090874;28;20061;-59
2022/12/12 08:38:12;;;;;;;3.53;3.22;;;;;;;;;;5088633;28;20103;-67
2022/12/12 08:40:38;;;;;;;3.35;3.05;;;;;;;;;;5089466;28;20123;-60
2022/12/12 08:43:03;;;;;;;4.15;3.05;;;;;;;;;;5092714;28;20039;-61
2022/12/12 08:45:29;;;;;;;4.05;3.00;;;;;;;;;;5092209;28;20428;-55
2022/12/12 08:47:55;;;;;;;3.50;2.90;;;;;;;;;;5092491;28;20077;-58
2022/12/12 08:50:20;;;;;;;3.50;3.08;;;;;;;;;;5092694;28;20111;-54
2022/12/12 08:52:46;;;;;;;3.10;2.78;;;;;;;;;;5092568;28;20028;-66
2022/12/12 08:55:12;;;;;;;3.83;2.90;;;;;;;;;;5086023;28;20054;-58
2022/12/12 08:57:37;;;;;;;3.75;3.38;;;;;;;;;;5088205;28;20070;-62
2022/12/12 09:00:03;;;;;;;4.72;3.40;;;;;;;;;;5093095;28;20020;-58
2022/12/12 09:02:29;;;;;;;4.05;3.33;;;;;;;;;;5093098;28;20052;-58
2022/12/12 09:04:54;;;;;;;4.75;3.45;;;;;;;;;;5093250;28;20023;-67
2022/12/12 09:07:20;;;;;;;3.45;3.15;;;;;;;;;;5089351;28;20020;-62
2022/12/12 09:09:46;;;;;;;3.70;3.20;;;;;;;;;;5089828;28;20100;-55
2022/12/12 09:12:11;;;;;;;3.85;3.45;;;;;;;;;;5092553;28;20071;-58
2022/12/12 09:14:37;;;;;;;3.85;3.30;;;;;;;;;;5092942;28;20024;-57
2022/12/12 09:17:03;;;;;;;4.25;3.17;;;;;;;;;;5092633;28;20353;-56
2022/12/12 09:19:28;;;;;;;3.45;3.10;;;;;;;;;;5093114;28;20107;-66
2022/12/12 09:21:54;;;;;;;3.40;3.00;;;;;;;;;;5092988;28;20028;-60
2022/12/12 09:24:19;;;;;;;4.15;3.53;;;;;;;;;;5092909;28;20028;-60
2022/12/12 09:26:45;;;;;;;3.63;3.15;;;;;;;;;;5092828;28;20028;-55
2022/12/12 09:29:11;;;;;;;3.22;2.92;;;;;;;;;;5092615;28;20016;-62
2022/12/12 09:31:37;;;;;;;3.28;2.97;;;;;;;;;;5091214;28;20540;-66
2022/12/12 09:34:02;;;;;;;3.38;3.00;;;;;;;;;;5090905;28;20031;-58
2022/12/12 09:36:28;;;;;;;3.47;3.10;;;;;;;;;;5089479;28;21069;-57
2022/12/12 09:38:53;;;;;;;3.65;3.22;;;;;;;;;;5092101;28;20016;-57
2022/12/12 09:41:29;;;;;;;3.47;3.15;;;;;;;;;;5092919;28;20035;-60
2022/12/12 09:44:17;;;;;;;4.60;3.20;;;;;;;;;;5093049;28;20030;-57
2022/12/12 09:46:49;;;;;;;3.90;3.20;;;;;;;;;;5092232;28;20028;-58
2022/12/12 09:49:46;;;;;;;3.15;2.85;;;;;;;;;;5090959;28;20032;-55
2022/12/12 09:52:21;;;;;;;3.88;3.10;;;;;;;;;;5083284;28;20062;-65
2022/12/12 09:54:47;;;;;;;3.33;3.03;;;;;;;;;;5090988;28;20065;-58
2022/12/12 09:57:57;;;;;;;3.67;3.20;;;;;;;;;;5089320;28;20484;-62
2022/12/12 10:00:23;;;;;;;;;;;;;;;;;;5089470;28;20024;-60
2022/12/12 10:03:06;;;;;;;3.55;2.80;;;;;;;;;;5090327;28;19927;-57
2022/12/12 10:05:49;;;;;;;3.97;3.20;;;;;;;;;;5089160;28;20079;-68
2022/12/12 10:08:41;;;;;;;3.90;3.50;;;;;;;;;;5091062;28;20476;-59
2022/12/12 10:11:49;;;;;;;3.25;2.95;;;;;;;;;;5090527;28;20356;-62
2022/12/12 10:14:00;;;;;;;3.90;2.72;;;;;;;;;;5088233;28;20028;-58
2022/12/12 10:16:28;;;;;;;3.67;3.00;;;;;;;;;;5090355;28;20024;-58
2022/12/12 10:19:27;;;;;;;5.00;2.95;;;;;;;;;;5093789;28;20028;-57
2022/12/12 10:22:00;;;;;;;3.20;2.85;;;;;;;;;;5081232;28;20043;-59
2022/12/12 10:24:36;;;;;;;3.17;2.88;;;;;;;;;;5094690;28;20054;-59
2022/12/12 10:27:09;;;;;;;4.93;3.00;;;;;;;;;;5095004;28;20053;-60
2022/12/12 10:29:35;;;;;;;3.08;2.70;;;;;;;;;;5095431;28;20039;-59
2022/12/12 10:32:04;;;;;;;3.55;3.10;;;;;;;;;;5094668;28;20051;-62
2022/12/12 10:34:42;;;;;;;3.30;2.97;;;;;;;;;;5094889;28;20024;-67
2022/12/12 10:37:16;;;;;;;3.35;3.05;;;;;;;;;;5094649;28;20677;-68
2022/12/12 10:40:00;;;;;;;3.40;3.10;;;;;;;;;;5094660;28;20034;-59
2022/12/12 10:42:44;;;;;;;3.63;3.08;;;;;;;;;;5094624;28;20040;-58
2022/12/12 10:45:12;;;;;;;4.40;3.08;;;;;;;;;;5094560;28;20153;-62
2022/12/12 10:47:38;;;;;;;3.60;3.15;;;;;;;;;;5094336;28;20034;-59
2022/12/12 10:50:10;;;;;;;3.25;2.95;;;;;;;;;;5092888;28;20028;-64
2022/12/12 10:52:36;;;;;;;3.58;3.03;;;;;;;;;;5094282;28;20036;-68
2022/12/12 10:55:07;;;;;;;3.08;2.60;;;;;;;;;;5093682;28;20071;-68
2022/12/12 10:57:34;;;;;;;3.30;3.00;;;;;;;;;;5094427;28;20034;-62
2022/12/12 11:00:16;;;;;;;3.58;2.90;;;;;;;;;;5094218;28;20559;-59
2022/12/12 11:02:42;;;;;;;3.25;2.95;;;;;;;;;;5093827;28;20122;-65
2022/12/12 11:05:21;;;;;;;3.10;2.80;;;;;;;;;;5093934;28;20066;-59
2022/12/12 11:07:58;;;;;;;3.70;3.00;;;;;;;;;;5094298;28;20028;-60
2022/12/12 11:10:30;;;;;;;2.70;2.50;;;;;;;;;;5093930;28;20823;-60
2022/12/12 11:13:02;;;;;;;3.78;3.05;;;;;;;;;;5089623;28;20052;-61
2022/12/12 11:15:43;;;;;;;3.50;3.20;;;;;;;;;;5090786;28;20059;-58
2022/12/12 11:18:18;;;;;;;5.25;3.50;;;;;;;;;;5092827;28;20037;-57
2022/12/12 11:21:00;;;;;;;4.72;3.00;;;;;;;;;;5092571;28;20494;-58
2022/12/12 11:23:27;;;;;;;3.33;3.03;;;;;;;;;;5092889;28;20111;-58
2022/12/12 11:25:59;;;;;;;3.08;2.78;;;;;;;;;;5092756;28;20460;-65
2022/12/12 11:28:27;;;;;;;3.00;2.70;;;;;;;;;;5092750;28;20039;-58
2022/12/12 11:30:55;;;;;;;3.00;2.70;;;;;;;;;;5090809;28;20028;-66
2022/12/12 11:33:30;;;;;;;3.00;2.70;;;;;;;;;;5093808;28;20076;-67
2022/12/12 11:35:57;;;;;;;3.60;2.85;;;;;;;;;;5093918;28;20036;-66
2022/12/12 11:38:37;;;;;;;4.47;2.85;;;;;;;;;;5093456;28;20055;-67
2022/12/12 11:41:06;;;;;;;3.00;2.70;;;;;;;;;;5093458;28;20028;-65
2022/12/12 11:43:48;;;;;;;5.18;2.80;;;;;;;;;;5093720;28;20085;-66
2022/12/12 11:46:13;;;;;;;3.22;2.53;;;;;;;;;;5093405;28;20405;-67
2022/12/12 11:48:51;;;;;;;3.60;2.92;;;;;;;;;;5093474;28;20108;-63
2022/12/12 11:51:36;;;;;;;4.30;2.90;;;;;;;;;;5093705;28;20378;-67
2022/12/12 11:54:28;;;;;;;3.08;2.85;;;;;;;;;;5093497;28;20036;-66
2022/12/12 11:56:56;;;;;;;3.15;2.85;;;;;;;;;;5093581;28;20026;-66
2022/12/12 11:59:31;;;;;;;3.20;2.90;;;;;;;;;;5091840;28;20061;-64
2022/12/12 12:02:33;;;;;;;3.03;2.70;;;;;;;;;;5090580;28;20052;-67
2022/12/12 12:05:17;;;;;;;3.10;2.80;;;;;;;;;;5093041;28;20558;-64
2022/12/12 12:08:02;;;;;;;4.00;2.72;;;;;;;;;;5091509;28;20028;-68
2022/12/12 12:11:08;;;;;;;3.47;3.15;;;;;;;;;;5084533;28;20036;-67
2022/12/12 12:13:42;;;;;;;3.80;2.95;;;;;;;;;;5074230;28;20017;-67
2022/12/12 12:16:36;;;;;;;7.45;2.90;;;;;;;;;;5090359;28;20101;-68
2022/12/12 12:19:01;;;;;;;5.75;2.90;;;;;;;;;;5088911;28;20047;-67
2022/12/12 12:21:39;;;;;;;3.90;3.45;;;;;;;;;;5091897;28;20433;-67
2022/12/12 12:24:45;;;;;;;3.20;2.90;;;;;;;;;;5089357;28;20035;-68
2022/12/12 12:27:46;;;;;;;3.70;2.92;;;;;;;;;;5088540;28;20092;-68
2022/12/12 12:30:55;;;;;;;3.78;2.85;;;;;;;;;;5087350;28;20480;-68
2022/12/12 12:34:01;;;;;;;4.50;3.35;;;;;;;;;;5090514;28;20118;-68
2022/12/12 12:36:48;;;;;;;3.50;3.10;;;;;;;;;;5051760;28;20040;-67
2022/12/12 12:39:40;;;;;;;3.42;3.13;;;;;;;;;;5092558;28;20404;-68
2022/12/12 12:42:36;;;;;;;3.78;2.80;;;;;;;;;;5089044;28;20084;-64
2022/12/12 12:45:06;;;;;;;2.90;2.63;;;;;;;;;;5092182;28;20031;-67
2022/12/12 12:47:53;;;;;;;3.10;2.80;;;;;;;;;;5092029;28;20115;-66
2022/12/12 12:50:25;;;;;;;3.30;3.00;;;;;;;;;;5090812;28;20147;-62
2022/12/12 12:52:56;;;;;;;3.42;3.03;;;;;;;;;;5090795;28;20379;-69
2022/12/12 12:55:33;;;;;;;3.45;3.00;;;;;;;;;;5087526;28;20475;-68
2022/12/12 12:58:02;;;;;;;4.18;2.72;;;;;;;;;;5092168;28;20543;-67
2022/12/12 13:00:30;;;;;;;3.75;3.22;;;;;;;;;;5091877;28;20028;-60
2022/12/12 13:03:11;;;;;;;3.15;2.85;;;;;;;;;;5091253;28;20138;-63
2022/12/12 13:05:49;;;;;;;6.55;3.10;;;;;;;;;;5091991;28;20081;-67
2022/12/12 13:08:28;;;;;;;3.10;2.80;;;;;;;;;;5089669;28;20362;-69
2022/12/12 13:11:00;;;;;;;3.53;3.03;;;;;;;;;;5089780;28;20048;-66
2022/12/12 13:13:31;;;;;;;5.40;3.20;;;;;;;;;;5091795;28;20075;-69
2022/12/12 13:16:26;;;;;;;2.88;2.65;;;;;;;;;;5091122;28;20036;-67
2022/12/12 13:19:04;;;;;;;3.30;3.00;;;;;;;;;;5077901;28;20043;-67
2022/12/12 13:21:55;;;;;;;3.47;3.17;;;;;;;;;;5090746;28;20102;-59
2022/12/12 13:24:28;;;;;;;4.75;3.40;;;;;;;;;;5091337;28;20032;-67
2022/12/12 13:27:12;;;;;;;3.55;3.25;;;;;;;;;;5090912;28;20102;-68
2022/12/12 13:29:53;;;;;;;3.45;3.15;;;;;;;;;;5088632;28;20090;-69
2022/12/12 13:32:43;;;;;;;4.88;3.30;;;;;;;;;;5088440;28;20040;-63
2022/12/12 13:35:23;;;;;;;4.00;3.30;;;;;;;;;;5088880;28;20032;-67
2022/12/12 13:37:51;;;;;;;3.35;2.80;;;;;;;;;;5091369;28;20113;-64
2022/12/12 13:40:38;;;;;;;3.05;2.60;;;;;;;;;;5088421;28;20016;-68
2022/12/12 13:43:06;;;;;;;3.88;3.50;;;;;;;;;;5090389;28;20425;-61
2022/12/12 13:45:32;;;;;;;3.88;3.50;;;;;;;;;;5087996;28;20494;-60
2022/12/12 13:47:59;;;;;;;4.03;3.63;;;;;;;;;;5086386;28;20143;-60
2022/12/12 13:50:24;;;;;;;3.63;3.13;;;;;;;;;;5086729;28;20036;-60
2022/12/12 13:53:15;;;;;;;3.25;2.95;;;;;;;;;;5088722;28;20096;-68
2022/12/12 13:55:41;;;;;;;3.60;3.30;;;;;;;;;;5091044;28;20020;-68
2022/12/12 13:58:18;;;;;;;4.45;4.00;;;;;;;;;;5090963;28;20356;-67
2022/12/12 14:00:44;;;;;;;4.28;3.22;;;;;;;;;;5088572;28;20501;-70
2022/12/12 14:03:11;;;;;;;3.95;3.55;;;;;;;;;;5089332;28;20132;-68
2022/12/12 14:05:45;;;;;;;6.38;3.42;;;;;;;;;;5085071;28;20075;-70
2022/12/12 14:08:10;;;;;;;4.15;3.50;;;;;;;;;;5089762;28;20032;-69
2022/12/12 14:10:44;;;;;;;7.22;3.95;;;;;;;;;;5088483;28;20032;-71
2022/12/12 14:13:25;;;;;;;4.10;3.65;;;;;;;;;;5088957;28;20111;-68
2022/12/12 14:15:56;;;;;;;;;;;;;;;;;;5089277;28;20062;-66
2022/12/12 14:18:37;;;;;;;3.40;3.10;;;;;;;;;;5090256;28;19931;-70
2022/12/12 14:21:04;;;;;;;4.03;3.63;;;;;;;;;;5089470;28;20213;-67
2022/12/12 14:23:34;;;;;;;3.92;3.53;;;;;;;;;;5086951;28;20028;-66
2022/12/12 14:26:01;;;;;;;4.93;4.05;;;;;;;;;;5087714;28;20028;-69
2022/12/12 14:28:30;;;;;;;5.07;3.67;;;;;;;;;;5089967;28;20166;-68
2022/12/12 14:30:57;;;;;;;6.47;3.87;;;;;;;;;;5084942;28;20035;-61
2022/12/12 14:33:52;;;;;;;4.57;4.13;;;;;;;;;;5088528;28;20047;-71
2022/12/12 14:36:42;;;;;;;5.55;3.70;;;;;;;;;;5088949;28;20028;-59
2022/12/12 14:39:42;;;;;;;4.97;3.95;;;;;;;;;;5088953;28;20038;-66
2022/12/12 14:42:37;;;;;;;3.80;3.50;;;;;;;;;;5089987;28;20383;-66
2022/12/12 14:45:30;;;;;;;3.85;3.47;;;;;;;;;;5090060;28;20085;-71
2022/12/12 14:48:26;;;;;;;5.53;3.40;;;;;;;;;;5090971;28;20028;-68
2022/12/12 14:51:00;;;;;;;4.75;3.70;;;;;;;;;;5090525;28;20035;-67
2022/12/12 14:53:31;;;;;;;6.68;4.18;;;;;;;;;;5090631;28;20174;-60
2022/12/12 14:56:00;;;;;;;16.55;4.18;;;;;;;;;;5090515;28;20479;-66
2022/12/12 14:58:28;;;;;;;4.53;3.78;;;;;;;;;;5090297;28;20101;-62
2022/12/12 15:01:02;;;;;;;4.38;3.58;;;;;;;;;;5089709;28;20044;-61
2022/12/12 15:03:43;;;;;;;4.53;3.60;;;;;;;;;;5090473;28;20090;-61
2022/12/12 15:06:23;;;;;;;3.53;3.17;;;;;;;;;;5093242;28;20028;-62
2022/12/12 15:08:51;;;;;;;4.20;3.80;;;;;;;;;;5094278;28;20020;-62
2022/12/12 15:11:21;;;;;;;4.40;3.75;;;;;;;;;;5093929;28;20085;-62
2022/12/12 15:13:52;;;;;;;4.20;3.33;;;;;;;;;;5094276;28;20024;-62
2022/12/12 15:16:23;;;;;;;3.95;3.50;;;;;;;;;;5093574;28;20036;-62
2022/12/12 15:18:49;;;;;;;4.32;3.80;;;;;;;;;;5075635;28;20136;-62
2022/12/12 15:21:18;;;;;;;4.50;3.58;;;;;;;;;;5090920;28;20040;-62
2022/12/12 15:23:43;;;;;;;4.18;3.70;;;;;;;;;;5092506;28;20032;-62
2022/12/12 15:26:18;;;;;;;3.65;3.20;;;;;;;;;;5093908;28;20105;-62